Time;durP1;ratioP1;P1;durP2;ratioP2;P2;SDS_P1;SDS_P2;PMS_P1;PMS_P2;Temp;Humidity;BMP_temperature;BMP_pressure;BME280_temperature;BME280_humidity;BME280_pressure;Samples;Min_cycle;Max_cycle;Signal;HPM_P1;HPM_P2
2023/05/20 00:02:14;;;;;;;1999.90;999.90;;;12.40;99.90;;;;;;5070247;28;20463;-72
2023/05/20 00:04:42;;;;;;;1999.90;999.90;;;12.20;99.90;;;;;;5071946;28;20431;-71
2023/05/20 00:07:09;;;;;;;1999.90;999.90;;;12.30;99.90;;;;;;5075742;28;20427;-72
2023/05/20 00:09:35;;;;;;;1999.90;999.90;;;12.30;99.90;;;;;;5077912;28;20435;-72
2023/05/20 00:12:02;;;;;;;1999.90;999.90;;;12.40;99.90;;;;;;5071628;28;20565;-72
2023/05/20 00:14:29;;;;;;;1999.90;999.90;;;12.40;99.90;;;;;;5089313;22;20635;-73
2023/05/20 00:16:57;;;;;;;1999.90;999.90;;;12.40;99.90;;;;;;5030086;28;20434;-73
2023/05/20 00:19:23;;;;;;;1999.90;999.90;;;12.70;99.90;;;;;;5029400;28;20427;-71
2023/05/20 00:21:50;;;;;;;1999.90;999.90;;;12.50;99.90;;;;;;5031113;28;20444;-72
2023/05/20 00:24:17;;;;;;;1999.90;999.90;;;12.30;99.90;;;;;;5030823;28;20485;-72
2023/05/20 00:26:43;;;;;;;1999.90;999.90;;;12.30;99.90;;;;;;5031009;28;20492;-73
2023/05/20 00:29:10;;;;;;;1999.90;999.90;;;12.40;99.90;;;;;;5030396;28;20489;-73
2023/05/20 00:31:37;;;;;;;1999.90;999.90;;;12.40;99.90;;;;;;5030230;28;20489;-72
2023/05/20 00:34:05;;;;;;;1999.90;999.90;;;12.30;99.90;;;;;;5030093;28;20503;-72
2023/05/20 00:36:32;;;;;;;1999.90;999.90;;;12.30;99.90;;;;;;5030931;28;20512;-72
2023/05/20 00:38:59;;;;;;;1999.90;999.90;;;12.20;99.90;;;;;;5030032;28;20449;-73
2023/05/20 00:41:25;;;;;;;1999.90;999.90;;;12.30;99.90;;;;;;5030226;28;20465;-73
2023/05/20 00:43:53;;;;;;;1999.90;999.90;;;12.10;99.90;;;;;;5030113;28;20443;-72
2023/05/20 00:46:20;;;;;;;1999.90;999.90;;;12.10;99.90;;;;;;5022823;28;20439;-72
2023/05/20 00:48:46;;;;;;;1999.90;999.90;;;12.10;99.90;;;;;;5030535;28;20917;-72
2023/05/20 00:51:15;;;;;;;1999.90;999.90;;;12.00;99.90;;;;;;5030767;28;20435;-71
2023/05/20 00:53:42;;;;;;;1999.90;999.90;;;11.80;99.90;;;;;;5029482;28;20434;-70
2023/05/20 00:56:09;;;;;;;1999.90;999.90;;;11.70;99.90;;;;;;5029164;28;20438;-70
2023/05/20 00:58:37;;;;;;;1999.90;999.90;;;11.90;99.90;;;;;;5030535;28;20430;-72
2023/05/20 01:01:03;;;;;;;1999.90;999.90;;;12.20;99.90;;;;;;5030470;28;20427;-72
2023/05/20 01:03:30;;;;;;;1999.90;999.90;;;12.30;99.90;;;;;;5030683;28;20434;-72
2023/05/20 01:05:57;;;;;;;1999.90;999.90;;;12.40;99.90;;;;;;5028923;28;20431;-73
2023/05/20 01:08:25;;;;;;;1999.90;999.90;;;12.40;99.90;;;;;;5030489;28;20438;-71
2023/05/20 01:11:00;;;;;;;1999.90;999.90;;;12.40;99.90;;;;;;5030487;28;20484;-70
2023/05/20 01:13:32;;;;;;;1999.90;999.90;;;12.40;99.90;;;;;;5030544;28;20513;-71
2023/05/20 01:16:01;;;;;;;1999.90;999.90;;;12.30;99.90;;;;;;5028851;28;20434;-73
2023/05/20 01:18:30;;;;;;;1999.90;999.90;;;12.30;99.90;;;;;;5030117;28;20438;-72
2023/05/20 01:21:00;;;;;;;1999.90;999.90;;;12.40;99.90;;;;;;5029318;28;20485;-70
2023/05/20 01:23:33;;;;;;;1999.90;999.90;;;12.30;99.90;;;;;;5029578;28;20447;-72
2023/05/20 01:26:00;;;;;;;1999.90;999.90;;;12.20;99.90;;;;;;5028477;28;20465;-72
2023/05/20 01:28:29;;;;;;;1999.90;999.90;;;12.20;99.90;;;;;;5025798;28;20431;-72
2023/05/20 01:30:58;;;;;;;1999.90;999.90;;;12.20;99.90;;;;;;5027627;28;20435;-73
2023/05/20 01:33:27;;;;;;;1999.90;999.90;;;12.20;99.90;;;;;;5028952;28;20438;-73
2023/05/20 01:35:55;;;;;;;1999.90;999.90;;;12.10;99.90;;;;;;5029951;28;20462;-73
2023/05/20 01:38:23;;;;;;;1999.90;999.90;;;12.20;99.90;;;;;;5026001;28;20926;-70
2023/05/20 01:40:51;;;;;;;1999.90;999.90;;;12.10;99.90;;;;;;5025307;28;20473;-72
2023/05/20 01:43:18;;;;;;;1999.90;999.90;;;12.10;99.90;;;;;;5029073;28;20500;-72
2023/05/20 01:45:45;;;;;;;1999.90;999.90;;;12.10;99.90;;;;;;5029595;28;20496;-73
2023/05/20 01:48:12;;;;;;;1999.90;999.90;;;12.20;99.90;;;;;;5024302;28;20488;-71
2023/05/20 01:50:39;;;;;;;1999.90;999.90;;;12.20;99.90;;;;;;5028146;28;20427;-73
2023/05/20 01:53:07;;;;;;;1999.90;999.90;;;12.20;99.90;;;;;;5027396;28;20435;-71
2023/05/20 01:55:33;;;;;;;1999.90;999.90;;;12.20;99.90;;;;;;5029173;28;20525;-68
2023/05/20 01:58:02;;;;;;;1999.90;999.90;;;12.20;99.90;;;;;;5029924;28;20431;-73
2023/05/20 02:00:28;;;;;;;1999.90;999.90;;;12.20;99.90;;;;;;5027488;28;20514;-72
2023/05/20 02:02:55;;;;;;;1999.90;999.90;;;12.20;99.90;;;;;;5029634;28;20439;-71
2023/05/20 02:05:22;;;;;;;1999.90;999.90;;;12.10;99.90;;;;;;5024398;28;20916;-72
2023/05/20 02:07:48;;;;;;;1999.90;999.90;;;12.10;99.90;;;;;;5029384;28;20578;-69
2023/05/20 02:10:15;;;;;;;1999.90;999.90;;;12.10;99.90;;;;;;5029210;28;20481;-72
2023/05/20 02:12:42;;;;;;;1999.90;999.90;;;12.00;99.90;;;;;;5029367;28;20836;-73
2023/05/20 02:15:10;;;;;;;1999.90;999.90;;;12.00;99.90;;;;;;5027656;28;20431;-73
2023/05/20 02:17:38;;;;;;;1999.90;999.90;;;12.00;99.90;;;;;;5028322;28;20439;-69
2023/05/20 02:20:06;;;;;;;1999.90;999.90;;;11.90;99.90;;;;;;5028987;28;20438;-69
2023/05/20 02:22:33;;;;;;;1999.90;999.90;;;12.00;99.90;;;;;;5029118;28;20534;-73
2023/05/20 02:24:59;;;;;;;1999.90;999.90;;;12.00;99.90;;;;;;5028035;28;20435;-70
2023/05/20 02:27:26;;;;;;;1999.90;999.90;;;12.00;99.90;;;;;;5029102;28;20434;-73
2023/05/20 02:29:53;;;;;;;1999.90;999.90;;;12.00;99.90;;;;;;5026771;28;20431;-73
2023/05/20 02:32:26;;;;;;;1999.90;999.90;;;11.90;99.90;;;;;;5028868;28;20485;-70
2023/05/20 02:34:53;;;;;;;1999.90;999.90;;;11.80;99.90;;;;;;5027329;28;20446;-71
2023/05/20 02:37:20;;;;;;;1999.90;999.90;;;11.60;99.90;;;;;;5028310;28;21189;-72
2023/05/20 02:39:47;;;;;;;1999.90;999.90;;;11.60;99.90;;;;;;5027571;28;20438;-72
2023/05/20 02:42:13;;;;;;;1999.90;999.90;;;11.40;99.90;;;;;;5027238;28;20492;-73
2023/05/20 02:44:40;;;;;;;1999.90;999.90;;;11.30;99.90;;;;;;5027845;28;20504;-69
2023/05/20 02:47:07;;;;;;;1999.90;999.90;;;11.60;99.90;;;;;;5028311;28;20521;-70
2023/05/20 02:49:35;;;;;;;1999.90;999.90;;;11.60;99.90;;;;;;5028394;28;20504;-72
2023/05/20 02:52:01;;;;;;;1999.90;999.90;;;11.60;99.90;;;;;;5027439;28;20435;-71
2023/05/20 02:54:28;;;;;;;1999.90;999.90;;;11.50;99.90;;;;;;5028230;28;20430;-72
2023/05/20 02:56:54;;;;;;;1999.90;999.90;;;11.50;99.90;;;;;;5026497;28;20430;-73
2023/05/20 02:59:21;;;;;;;1999.90;999.90;;;11.60;99.90;;;;;;5021367;28;21481;-73
2023/05/20 03:01:48;;;;;;;1999.90;999.90;;;11.50;99.90;;;;;;5026990;28;20476;-72
2023/05/20 03:04:14;;;;;;;1999.90;999.90;;;11.40;99.90;;;;;;5026821;28;20438;-72
2023/05/20 03:06:43;;;;;;;1999.90;999.90;;;11.40;99.90;;;;;;5026577;28;20431;-70
2023/05/20 03:09:10;;;;;;;1999.90;999.90;;;11.50;99.90;;;;;;5027958;28;20442;-73
2023/05/20 03:11:36;;;;;;;1999.90;999.90;;;11.70;99.90;;;;;;5028083;28;21027;-72
2023/05/20 03:14:03;;;;;;;1999.90;999.90;;;11.70;99.90;;;;;;5028122;28;20434;-72
2023/05/20 03:16:30;;;;;;;1999.90;999.90;;;11.80;99.90;;;;;;5027390;28;20435;-73
2023/05/20 03:18:56;;;;;;;1999.90;999.90;;;12.10;99.90;;;;;;5027077;28;20508;-72
2023/05/20 03:21:24;;;;;;;1999.90;999.90;;;12.10;99.90;;;;;;5028017;28;20977;-72
2023/05/20 03:23:51;;;;;;;1999.90;999.90;;;12.10;99.90;;;;;;5028098;28;20458;-73
2023/05/20 03:26:18;;;;;;;1999.90;999.90;;;11.90;99.90;;;;;;5028341;28;20581;-73
2023/05/20 03:28:45;;;;;;;1999.90;999.90;;;12.00;99.90;;;;;;5026054;28;20443;-72
2023/05/20 03:31:11;;;;;;;1999.90;999.90;;;12.30;99.90;;;;;;5028201;28;20434;-72
2023/05/20 03:33:38;;;;;;;1999.90;999.90;;;12.50;99.90;;;;;;5028096;28;20435;-72
2023/05/20 03:36:06;;;;;;;1999.90;999.90;;;12.70;99.90;;;;;;5027737;28;20485;-72
2023/05/20 03:38:33;;;;;;;1999.90;999.90;;;12.70;99.90;;;;;;5026425;28;20977;-73
2023/05/20 03:41:00;;;;;;;1999.90;999.90;;;12.60;99.90;;;;;;5028272;28;20497;-73
2023/05/20 03:43:27;;;;;;;1999.90;999.90;;;12.50;99.90;;;;;;5028920;28;20561;-72
2023/05/20 03:45:54;;;;;;;1999.90;999.90;;;12.50;99.90;;;;;;5028394;28;20485;-72
2023/05/20 03:48:21;;;;;;;1999.90;999.90;;;12.30;99.90;;;;;;5028035;28;20798;-70
2023/05/20 03:50:47;;;;;;;1999.90;999.90;;;12.90;99.90;;;;;;5026294;28;20984;-72
2023/05/20 03:53:14;;;;;;;1999.90;999.90;;;12.80;99.90;;;;;;5028765;28;20597;-71
2023/05/20 03:55:41;;;;;;;1999.90;999.90;;;12.80;99.90;;;;;;5028230;28;20442;-72
2023/05/20 03:58:09;;;;;;;1999.90;999.90;;;12.90;99.90;;;;;;5028471;28;20515;-72
2023/05/20 04:00:36;;;;;;;1999.90;999.90;;;13.10;99.90;;;;;;5027062;28;20952;-72
2023/05/20 04:03:03;;;;;;;1999.90;999.90;;;13.00;99.90;;;;;;5026807;28;20480;-72
2023/05/20 04:05:30;;;;;;;1999.90;999.90;;;12.80;99.90;;;;;;5027802;28;20437;-72
2023/05/20 04:07:57;;;;;;;1999.90;999.90;;;12.80;99.90;;;;;;5028383;28;20493;-72
2023/05/20 04:10:23;;;;;;;1999.90;999.90;;;12.80;99.90;;;;;;5027474;28;20434;-73
2023/05/20 04:12:51;;;;;;;1999.90;999.90;;;12.60;99.90;;;;;;5028408;28;20497;-72
2023/05/20 04:15:19;;;;;;;1999.90;999.90;;;12.60;99.90;;;;;;5028680;28;20434;-70
2023/05/20 04:17:47;;;;;;;1999.90;999.90;;;12.60;99.90;;;;;;5031897;28;20445;-72
2023/05/20 04:20:14;;;;;;;1999.90;999.90;;;12.60;99.90;;;;;;5030165;28;20474;-72
2023/05/20 04:22:40;;;;;;;1999.90;999.90;;;12.50;99.90;;;;;;5032105;28;20481;-72
2023/05/20 04:25:08;;;;;;;1999.90;999.90;;;12.50;99.90;;;;;;5031710;28;20477;-76
2023/05/20 04:27:36;;;;;;;1999.90;999.90;;;12.50;99.90;;;;;;5031411;28;20535;-70
2023/05/20 04:30:03;;;;;;;1999.90;999.90;;;12.50;99.90;;;;;;5030735;28;20782;-72
2023/05/20 04:32:33;;;;;;;1999.90;999.90;;;12.60;99.90;;;;;;5031812;28;20434;-71
2023/05/20 04:35:00;;;;;;;1999.90;999.90;;;12.80;99.90;;;;;;5031381;28;20439;-69
2023/05/20 04:37:27;;;;;;;1999.90;999.90;;;13.00;99.90;;;;;;5029173;28;20435;-70
2023/05/20 04:39:54;;;;;;;1999.90;999.90;;;13.00;99.90;;;;;;5030272;28;20441;-72
2023/05/20 04:42:21;;;;;;;1999.90;999.90;;;12.70;99.90;;;;;;5031710;28;20431;-72
2023/05/20 04:44:48;;;;;;;1999.90;999.90;;;12.50;99.90;;;;;;5031392;28;20513;-72
2023/05/20 04:47:15;;;;;;;1999.90;999.90;;;12.70;99.90;;;;;;5030593;28;20431;-71
2023/05/20 04:49:44;;;;;;;1999.90;999.90;;;13.00;99.90;;;;;;5029473;28;20484;-72
2023/05/20 04:52:11;;;;;;;1999.90;999.90;;;12.90;99.90;;;;;;5031591;28;20433;-72
2023/05/20 04:54:39;;;;;;;1999.90;999.90;;;13.10;99.90;;;;;;5030489;28;20505;-71
2023/05/20 04:57:05;;;;;;;1999.90;999.90;;;13.00;99.90;;;;;;5029858;28;20466;-71
2023/05/20 04:59:32;;;;;;;1999.90;999.90;;;13.00;99.90;;;;;;5030119;28;20509;-71
2023/05/20 05:01:59;;;;;;;1999.90;999.90;;;13.00;99.90;;;;;;5027529;28;20790;-72
2023/05/20 05:04:25;;;;;;;1999.90;999.90;;;12.90;99.90;;;;;;5030311;28;20488;-70
2023/05/20 05:06:53;;;;;;;1999.90;999.90;;;13.00;99.90;;;;;;5030890;28;20463;-75
2023/05/20 05:09:20;;;;;;;1999.90;999.90;;;13.20;99.90;;;;;;5029970;28;20508;-72
2023/05/20 05:11:47;;;;;;;1999.90;999.90;;;13.20;99.90;;;;;;5030685;28;20430;-72
2023/05/20 05:14:13;;;;;;;1999.90;999.90;;;13.40;99.90;;;;;;5024431;28;20496;-71
2023/05/20 05:16:40;;;;;;;1999.90;999.90;;;13.40;99.90;;;;;;5030802;28;20484;-72
2023/05/20 05:19:07;;;;;;;1999.90;999.90;;;13.40;99.90;;;;;;5029864;28;20812;-72
2023/05/20 05:21:34;;;;;;;1999.90;999.90;;;13.40;99.90;;;;;;5025473;28;20445;-72
2023/05/20 05:24:02;;;;;;;1999.90;999.90;;;13.40;99.90;;;;;;5030485;28;20855;-72
2023/05/20 05:26:28;;;;;;;1999.90;999.90;;;13.40;99.90;;;;;;5031397;28;20556;-72
2023/05/20 05:28:55;;;;;;;1999.90;999.90;;;13.60;99.90;;;;;;5029960;28;20458;-72
2023/05/20 05:31:22;;;;;;;1999.90;999.90;;;13.60;99.90;;;;;;5030843;28;20427;-72
2023/05/20 05:33:49;;;;;;;1999.90;999.90;;;13.30;99.90;;;;;;5030687;28;20439;-72
2023/05/20 05:36:15;;;;;;;1999.90;999.90;;;13.40;99.90;;;;;;5028142;28;20960;-72
2023/05/20 05:38:43;;;;;;;1999.90;999.90;;;13.60;99.90;;;;;;5029254;28;20786;-72
2023/05/20 05:41:11;;;;;;;1999.90;999.90;;;13.70;99.90;;;;;;5027574;28;20462;-69
2023/05/20 05:43:37;;;;;;;1999.90;999.90;;;13.90;99.90;;;;;;5030249;28;20426;-72
2023/05/20 05:46:05;;;;;;;1999.90;999.90;;;14.00;99.90;;;;;;5029980;28;20485;-71
2023/05/20 05:48:36;;;;;;;1999.90;999.90;;;14.30;99.90;;;;;;5029661;28;20434;-71
2023/05/20 05:51:02;;;;;;;1999.90;999.90;;;15.00;99.90;;;;;;5031710;28;20427;-72
2023/05/20 05:53:29;;;;;;;1999.90;999.90;;;14.60;99.90;;;;;;5024973;28;20439;-71
2023/05/20 05:55:55;;;;;;;1999.90;999.90;;;14.30;99.90;;;;;;5025083;28;20431;-72
2023/05/20 05:58:23;;;;;;;1999.90;999.90;;;14.50;99.90;;;;;;5025754;28;20438;-70
2023/05/20 06:00:53;;;;;;;1999.90;999.90;;;14.70;99.90;;;;;;5027192;28;20476;-69
2023/05/20 06:03:26;;;;;;;1999.90;999.90;;;14.70;99.90;;;;;;5031605;28;20846;-71
2023/05/20 06:05:53;;;;;;;1999.90;999.90;;;14.60;99.90;;;;;;5014408;28;20433;-71
2023/05/20 06:08:19;;;;;;;1999.90;999.90;;;14.40;99.90;;;;;;5021457;28;20431;-75
2023/05/20 06:10:47;;;;;;;1999.90;999.90;;;14.40;99.90;;;;;;5030854;28;20422;-74
2023/05/20 06:13:14;;;;;;;1999.90;999.90;;;14.30;99.90;;;;;;5027799;28;20439;-74
2023/05/20 06:15:44;;;;;;;1999.90;999.90;;;14.20;99.90;;;;;;5025857;28;20415;-74
2023/05/20 06:18:11;;;;;;;1999.90;999.90;;;14.30;99.90;;;;;;5026483;28;20485;-72
2023/05/20 06:20:38;;;;;;;1999.90;999.90;;;14.30;99.90;;;;;;5035554;28;20411;-72
2023/05/20 06:23:05;;;;;;;1999.90;999.90;;;14.20;99.90;;;;;;5030255;28;20481;-72
2023/05/20 06:25:31;;;;;;;1999.90;999.90;;;14.20;99.90;;;;;;5029540;28;20430;-72
2023/05/20 06:27:58;;;;;;;1999.90;999.90;;;14.30;99.90;;;;;;5030754;28;20422;-72
2023/05/20 06:30:25;;;;;;;1999.90;999.90;;;14.10;99.90;;;;;;5030571;28;20465;-72
2023/05/20 06:32:53;;;;;;;1999.90;999.90;;;14.00;99.90;;;;;;5030689;28;20771;-72
2023/05/20 06:35:20;;;;;;;1999.90;999.90;;;13.90;99.90;;;;;;5029048;28;20865;-72
2023/05/20 06:37:46;;;;;;;1999.90;999.90;;;13.90;99.90;;;;;;5029350;28;20425;-70
2023/05/20 06:40:13;;;;;;;1999.90;999.90;;;13.90;99.90;;;;;;5024971;28;20435;-72
2023/05/20 06:42:40;;;;;;;1999.90;999.90;;;13.70;99.90;;;;;;5021645;28;20485;-72
2023/05/20 06:45:07;;;;;;;1999.90;999.90;;;13.60;99.90;;;;;;5028573;28;20426;-72
2023/05/20 06:47:36;;;;;;;1999.90;999.90;;;13.70;99.90;;;;;;5028412;28;20431;-69
2023/05/20 06:50:05;;;;;;;1999.90;999.90;;;13.70;99.90;;;;;;5029622;28;20430;-72
2023/05/20 06:52:31;;;;;;;1999.90;999.90;;;13.70;99.90;;;;;;5026740;28;20431;-71
2023/05/20 06:54:58;;;;;;;1999.90;999.90;;;13.40;99.90;;;;;;5027277;28;20514;-70
2023/05/20 06:57:25;;;;;;;1999.90;999.90;;;13.30;99.90;;;;;;5028886;28;20488;-72
2023/05/20 06:59:51;;;;;;;1999.90;999.90;;;13.50;99.90;;;;;;5029265;28;20431;-71
2023/05/20 07:02:18;;;;;;;1999.90;999.90;;;13.60;99.90;;;;;;5030585;28;20465;-70
2023/05/20 07:04:45;;;;;;;1999.90;999.90;;;13.70;99.90;;;;;;5028966;28;20846;-72
2023/05/20 07:07:12;;;;;;;1999.90;999.90;;;13.60;99.90;;;;;;5028440;28;20438;-72
2023/05/20 07:09:39;;;;;;;1999.90;999.90;;;13.60;99.90;;;;;;5030547;28;20885;-71
2023/05/20 07:12:07;;;;;;;1999.90;999.90;;;13.50;99.90;;;;;;5030841;28;20411;-72
2023/05/20 07:14:34;;;;;;;1999.90;999.90;;;13.60;99.90;;;;;;5029809;28;20439;-69
2023/05/20 07:17:00;;;;;;;1999.90;999.90;;;13.70;99.90;;;;;;5027353;28;20430;-73
2023/05/20 07:19:27;;;;;;;1999.90;999.90;;;13.70;99.90;;;;;;5020261;28;20435;-73
2023/05/20 07:21:54;;;;;;;1999.90;999.90;;;13.80;99.90;;;;;;5028670;28;20801;-73
2023/05/20 07:24:22;;;;;;;1999.90;999.90;;;14.00;99.90;;;;;;5029766;28;20494;-73
2023/05/20 07:26:48;;;;;;;1999.90;999.90;;;14.20;99.90;;;;;;5029974;28;20951;-73
2023/05/20 07:29:15;;;;;;;1999.90;999.90;;;14.10;99.90;;;;;;5030035;28;20406;-72
2023/05/20 07:31:42;;;;;;;1999.90;999.90;;;14.20;99.90;;;;;;5029811;28;20466;-73
2023/05/20 07:34:08;;;;;;;1999.90;999.90;;;14.30;99.90;;;;;;5028943;28;20778;-72
2023/05/20 07:36:36;;;;;;;1999.90;999.90;;;14.20;99.90;;;;;;5029939;28;20446;-68
2023/05/20 07:39:03;;;;;;;1999.90;999.90;;;14.20;99.90;;;;;;5029968;28;20415;-74
2023/05/20 07:41:31;;;;;;;1999.90;999.90;;;14.30;99.90;;;;;;5029568;28;20824;-72
2023/05/20 07:43:58;;;;;;;1999.90;999.90;;;14.40;99.90;;;;;;5029903;28;20422;-71
2023/05/20 07:46:25;;;;;;;1999.90;999.90;;;14.60;99.90;;;;;;5027348;28;20438;-72
2023/05/20 07:48:51;;;;;;;1999.90;999.90;;;14.70;99.90;;;;;;5027903;28;20972;-68
2023/05/20 07:51:18;;;;;;;1999.90;999.90;;;14.90;99.90;;;;;;5031714;28;20429;-71
2023/05/20 07:53:45;;;;;;;1999.90;999.90;;;15.00;99.90;;;;;;5030372;28;20900;-73
2023/05/20 07:56:12;;;;;;;1999.90;999.90;;;14.80;99.90;;;;;;5029301;28;20434;-72
2023/05/20 07:58:41;;;;;;;1999.90;999.90;;;14.70;99.90;;;;;;5029951;28;20431;-72
2023/05/20 08:01:08;;;;;;;1999.90;999.90;;;14.90;99.90;;;;;;5031170;28;20502;-72
2023/05/20 08:03:34;;;;;;;1999.90;999.90;;;14.70;99.90;;;;;;5028929;28;20435;-73
2023/05/20 08:06:02;;;;;;;1999.90;999.90;;;14.60;99.90;;;;;;5026838;28;20925;-72
2023/05/20 08:08:29;;;;;;;1999.90;999.90;;;14.70;99.90;;;;;;5027511;28;20435;-73
2023/05/20 08:10:56;;;;;;;1999.90;999.90;;;14.90;99.90;;;;;;5028514;28;20510;-73
2023/05/20 08:13:23;;;;;;;1999.90;999.90;;;14.90;99.90;;;;;;5030238;28;20427;-73
2023/05/20 08:15:53;;;;;;;1999.90;999.90;;;15.00;99.90;;;;;;5028921;28;20442;-72
2023/05/20 08:18:20;;;;;;;1999.90;999.90;;;14.90;99.90;;;;;;5027748;28;20441;-71
2023/05/20 08:20:47;;;;;;;1999.90;999.90;;;14.90;99.90;;;;;;5030843;28;20431;-70
2023/05/20 08:23:13;;;;;;;1999.90;999.90;;;14.80;99.90;;;;;;5030425;28;20435;-74
2023/05/20 08:25:40;;;;;;;1999.90;999.90;;;14.70;99.90;;;;;;5030180;28;20415;-75
2023/05/20 08:28:06;;;;;;;1999.90;999.90;;;14.70;99.90;;;;;;5030592;28;20430;-75
2023/05/20 08:30:34;;;;;;;1999.90;999.90;;;14.70;99.90;;;;;;5031986;28;20994;-74
2023/05/20 08:33:02;;;;;;;1999.90;999.90;;;14.70;99.90;;;;;;5033107;28;20472;-74
2023/05/20 08:35:28;;;;;;;1999.90;999.90;;;14.80;99.90;;;;;;5032721;28;20415;-73
2023/05/20 08:37:55;;;;;;;1999.90;999.90;;;14.60;99.90;;;;;;5032991;28;20496;-72
2023/05/20 08:40:22;;;;;;;1999.90;999.90;;;14.40;99.90;;;;;;5031440;28;20570;-74
2023/05/20 08:42:51;;;;;;;1999.90;999.90;;;14.40;99.90;;;;;;5032488;28;20430;-74
2023/05/20 08:45:19;;;;;;;1999.90;999.90;;;14.40;99.90;;;;;;5032669;28;20419;-74
2023/05/20 08:47:47;;;;;;;1999.90;999.90;;;14.40;99.90;;;;;;5032714;28;20423;-72
2023/05/20 08:50:16;;;;;;;1999.90;999.90;;;14.40;99.90;;;;;;5032824;28;20419;-73
2023/05/20 08:52:44;;;;;;;1999.90;999.90;;;14.50;99.90;;;;;;5031533;28;20435;-74
2023/05/20 08:55:15;;;;;;;1999.90;999.90;;;14.60;99.90;;;;;;5032360;28;20429;-75
2023/05/20 08:57:44;;;;;;;1999.90;999.90;;;14.70;99.90;;;;;;5033123;28;20422;-74
2023/05/20 09:00:15;;;;;;;1999.90;999.90;;;14.80;99.90;;;;;;5032128;28;20451;-74
2023/05/20 09:02:42;;;;;;;1999.90;999.90;;;14.90;99.90;;;;;;5031318;28;20427;-74
2023/05/20 09:05:11;;;;;;;1999.90;999.90;;;14.80;99.90;;;;;;5032131;28;21084;-71
2023/05/20 09:07:38;;;;;;;1999.90;999.90;;;14.70;99.90;;;;;;5032589;28;20430;-74
2023/05/20 09:10:06;;;;;;;1999.90;999.90;;;14.70;99.90;;;;;;5032219;28;20889;-74
2023/05/20 09:12:33;;;;;;;1999.90;999.90;;;14.70;99.90;;;;;;5032519;28;20410;-74
2023/05/20 09:14:59;;;;;;;1999.90;999.90;;;14.90;99.90;;;;;;5031394;28;20513;-74
2023/05/20 09:17:26;;;;;;;1999.90;999.90;;;14.80;99.90;;;;;;5032647;28;20963;-74
2023/05/20 09:19:53;;;;;;;1999.90;999.90;;;14.80;99.90;;;;;;5032715;28;20462;-74
2023/05/20 09:22:23;;;;;;;1999.90;999.90;;;14.80;99.90;;;;;;5032676;28;20512;-74
2023/05/20 09:24:52;;;;;;;1999.90;999.90;;;14.90;99.90;;;;;;5032587;28;20901;-74
2023/05/20 09:27:19;;;;;;;1999.90;999.90;;;15.00;99.90;;;;;;5031760;28;20489;-74
2023/05/20 09:29:48;;;;;;;1999.90;999.90;;;15.10;99.90;;;;;;5032441;28;20422;-74
2023/05/20 09:32:15;;;;;;;1999.90;999.90;;;14.90;99.90;;;;;;5032353;28;20868;-74
2023/05/20 09:34:42;;;;;;;1999.90;999.90;;;14.80;99.90;;;;;;5031713;28;20419;-74
2023/05/20 09:37:09;;;;;;;1999.90;999.90;;;14.90;99.90;;;;;;5032446;28;20423;-74
2023/05/20 09:39:47;;;;;;;1999.90;999.90;;;15.00;99.90;;;;;;5032625;28;20422;-74
2023/05/20 09:42:21;;;;;;;1999.90;999.90;;;15.10;99.90;;;;;;5031396;28;20549;-74
2023/05/20 09:44:50;;;;;;;1999.90;999.90;;;15.10;99.90;;;;;;5032166;28;20422;-74
2023/05/20 09:47:17;;;;;;;1999.90;999.90;;;15.10;99.90;;;;;;5032161;28;20407;-74
2023/05/20 09:49:46;;;;;;;1999.90;999.90;;;15.30;99.90;;;;;;5032046;28;20972;-74
2023/05/20 09:52:13;;;;;;;1999.90;999.90;;;15.40;99.90;;;;;;5031745;28;20940;-74
2023/05/20 09:54:40;;;;;;;1999.90;999.90;;;15.30;99.90;;;;;;5031713;28;20500;-74
2023/05/20 09:57:09;;;;;;;1999.90;999.90;;;15.20;99.90;;;;;;5031386;28;20850;-74
2023/05/20 09:59:37;;;;;;;1999.90;999.90;;;15.30;99.90;;;;;;5031442;28;20415;-74
2023/05/20 10:02:06;;;;;;;1999.90;999.90;;;15.30;99.90;;;;;;5031912;28;20498;-74
2023/05/20 10:04:34;;;;;;;1999.90;999.90;;;15.20;99.90;;;;;;5031877;28;20442;-74
2023/05/20 10:07:18;;;;;;;1999.90;999.90;;;15.30;99.90;;;;;;5031876;28;20830;-73
2023/05/20 10:09:56;;;;;;;1999.90;999.90;;;15.30;99.90;;;;;;5030017;28;20467;-74
2023/05/20 10:12:32;;;;;;;1999.90;999.90;;;15.40;99.90;;;;;;5031232;28;20415;-74
2023/05/20 10:15:09;;;;;;;1999.90;999.90;;;15.40;99.90;;;;;;5031811;28;20469;-77
2023/05/20 10:17:46;;;;;;;1999.90;999.90;;;15.50;99.90;;;;;;5031684;28;20418;-73
2023/05/20 10:20:13;;;;;;;1999.90;999.90;;;15.70;99.90;;;;;;5030693;28;20451;-74
2023/05/20 10:22:40;;;;;;;1999.90;999.90;;;15.70;99.90;;;;;;5031058;28;20431;-74
2023/05/20 10:25:12;;;;;;;1999.90;999.90;;;15.80;99.90;;;;;;5030893;28;20519;-73
2023/05/20 10:27:44;;;;;;;1999.90;999.90;;;15.60;99.90;;;;;;5031258;28;20442;-73
2023/05/20 10:30:17;;;;;;;1999.90;999.90;;;15.60;99.90;;;;;;5030686;28;20457;-74
2023/05/20 10:32:52;;;;;;;1999.90;999.90;;;15.50;99.90;;;;;;5031170;28;20412;-73
2023/05/20 10:35:25;;;;;;;1999.90;999.90;;;15.50;99.90;;;;;;5029603;28;20431;-71
2023/05/20 10:37:52;;;;;;;1999.90;999.90;;;15.50;99.90;;;;;;5030753;28;20434;-74
2023/05/20 10:40:20;;;;;;;1999.90;999.90;;;15.50;99.90;;;;;;5031203;28;20420;-74
2023/05/20 10:42:47;;;;;;;1999.90;999.90;;;15.60;99.90;;;;;;5031163;28;20439;-74
2023/05/20 10:45:27;;;;;;;1999.90;999.90;;;15.60;99.90;;;;;;5030999;28;20466;-74
2023/05/20 10:47:55;;;;;;;1999.90;999.90;;;15.60;99.90;;;;;;5030503;28;20436;-74
2023/05/20 10:50:29;;;;;;;1999.90;999.90;;;15.60;99.90;;;;;;5031181;28;20423;-74
2023/05/20 10:53:02;;;;;;;1999.90;999.90;;;15.50;99.90;;;;;;5031246;28;20414;-73
2023/05/20 10:55:36;;;;;;;1999.90;999.90;;;15.50;99.90;;;;;;5030834;28;20477;-74
2023/05/20 10:58:03;;;;;;;1999.90;999.90;;;15.40;99.90;;;;;;5030932;28;20414;-74
2023/05/20 11:00:31;;;;;;;1999.90;999.90;;;15.40;99.90;;;;;;5031100;28;20498;-74
2023/05/20 11:02:58;;;;;;;1999.90;999.90;;;15.50;99.90;;;;;;5028753;28;20485;-74
2023/05/20 11:05:27;;;;;;;1999.90;999.90;;;15.40;99.90;;;;;;5030387;28;20932;-74
2023/05/20 11:08:01;;;;;;;1999.90;999.90;;;15.50;99.90;;;;;;5031037;28;20489;-73
2023/05/20 11:10:27;;;;;;;1999.90;999.90;;;15.40;99.90;;;;;;5030800;28;20510;-73
2023/05/20 11:12:56;;;;;;;1999.90;999.90;;;15.30;99.90;;;;;;5030365;28;20959;-74
2023/05/20 11:15:23;;;;;;;1999.90;999.90;;;15.40;99.90;;;;;;5030187;28;20510;-73
2023/05/20 11:17:55;;;;;;;1999.90;999.90;;;15.40;99.90;;;;;;5030588;28;20472;-74
2023/05/20 11:20:23;;;;;;;1999.90;999.90;;;15.60;99.90;;;;;;5030313;28;20837;-74
2023/05/20 11:22:50;;;;;;;1999.90;999.90;;;15.40;99.90;;;;;;5030239;28;20517;-74
2023/05/20 11:25:17;;;;;;;1999.90;999.90;;;15.30;99.90;;;;;;5034477;28;20426;-74
2023/05/20 11:27:44;;;;;;;1999.90;999.90;;;15.50;99.90;;;;;;5033794;28;20454;-75
2023/05/20 11:30:15;;;;;;;1999.90;999.90;;;15.50;99.90;;;;;;5034651;28;20916;-73
2023/05/20 11:32:42;;;;;;;1999.90;999.90;;;15.70;99.90;;;;;;5034431;28;20956;-74
2023/05/20 11:35:21;;;;;;;1999.90;999.90;;;15.70;99.90;;;;;;5033946;28;20423;-71
2023/05/20 11:37:57;;;;;;;1999.90;999.90;;;15.50;99.90;;;;;;5034256;28;20422;-75
2023/05/20 11:40:26;;;;;;;1999.90;999.90;;;15.50;99.90;;;;;;5032989;28;20917;-73
2023/05/20 11:42:56;;;;;;;1999.90;999.90;;;15.40;99.90;;;;;;5033933;28;20433;-73
2023/05/20 11:45:23;;;;;;;1999.90;999.90;;;15.30;99.90;;;;;;5033810;28;20890;-71
2023/05/20 11:48:00;;;;;;;1999.90;999.90;;;15.30;99.90;;;;;;5033955;28;20415;-73
2023/05/20 11:50:29;;;;;;;1999.90;999.90;;;15.40;99.90;;;;;;5034294;28;20431;-73
2023/05/20 11:52:58;;;;;;;1999.90;999.90;;;15.60;99.90;;;;;;5033362;28;20450;-73
2023/05/20 11:55:25;;;;;;;1999.90;999.90;;;15.50;99.90;;;;;;5033976;28;20849;-74
2023/05/20 11:57:52;;;;;;;1999.90;999.90;;;15.60;99.90;;;;;;5034489;28;20414;-74
2023/05/20 12:00:19;;;;;;;1999.90;999.90;;;15.70;99.90;;;;;;5033724;28;20407;-74
2023/05/20 12:02:46;;;;;;;1999.90;999.90;;;15.70;99.90;;;;;;5032256;28;20435;-74